Time;durP1;ratioP1;P1;durP2;ratioP2;P2;SDS_P1;SDS_P2;PMS_P1;PMS_P2;Temp;Humidity;BMP_temperature;BMP_pressure;BME280_temperature;BME280_humidity;BME280_pressure;Samples;Min_cycle;Max_cycle;Signal;HPM_P1;HPM_P2
2022/02/26 00:02:18;;;;;;;47.38;21.48;;;;;;;-0.53;100.00;103045.00;5074055;28;20033;-73
2022/02/26 00:04:43;;;;;;;50.55;22.13;;;;;;;-0.53;100.00;103047.59;5073906;28;20029;-72
2022/02/26 00:07:09;;;;;;;46.28;23.08;;;;;;;-0.58;100.00;103043.72;5074119;28;20035;-73
2022/02/26 00:09:34;;;;;;;45.58;22.05;;;;;;;-0.60;100.00;103051.34;5074112;28;20052;-73
2022/02/26 00:12:00;;;;;;;47.47;21.58;;;;;;;-0.79;100.00;103060.97;5072454;28;20033;-72
2022/02/26 00:14:25;;;;;;;44.67;20.38;;;;;;;-0.94;100.00;103063.16;5073866;28;20486;-72
2022/02/26 00:16:51;;;;;;;43.50;20.27;;;;;;;-1.01;100.00;103060.81;5073663;28;20103;-72
2022/02/26 00:19:16;;;;;;;46.63;21.48;;;;;;;-0.94;100.00;103061.47;5073641;28;20033;-72
2022/02/26 00:21:42;;;;;;;47.45;22.48;;;;;;;-0.92;100.00;103071.97;5072958;28;20025;-72
2022/02/26 00:24:08;;;;;;;44.45;22.60;;;;;;;-0.84;100.00;103064.88;5073431;28;20020;-72
2022/02/26 00:26:33;;;;;;;49.22;23.58;;;;;;;-0.74;100.00;103062.28;5073405;28;20028;-72
2022/02/26 00:28:59;;;;;;;50.38;24.08;;;;;;;-0.59;100.00;103062.69;5073672;28;20027;-72
2022/02/26 00:31:24;;;;;;;48.88;24.13;;;;;;;-0.69;100.00;103076.56;5073183;28;20107;-72
2022/02/26 00:33:49;;;;;;;50.42;23.90;;;;;;;-0.68;100.00;103083.59;5073315;28;20030;-70
2022/02/26 00:36:15;;;;;;;47.65;23.58;;;;;;;-0.68;100.00;103088.78;5073411;28;20097;-71
2022/02/26 00:38:40;;;;;;;51.47;24.50;;;;;;;-0.64;100.00;103087.34;5073259;28;20034;-71
2022/02/26 00:41:05;;;;;;;53.88;25.65;;;;;;;-0.66;100.00;103097.59;5073638;28;20024;-70
2022/02/26 00:43:31;;;;;;;55.22;24.83;;;;;;;-0.67;100.00;103101.00;5073085;28;20455;-70
2022/02/26 00:45:56;;;;;;;54.83;25.15;;;;;;;-0.76;100.00;103111.50;5072930;28;20037;-70
2022/02/26 00:51:06;;;;;;;48.95;24.30;;;;;;;-0.96;100.00;103112.38;5071051;28;20114;-70
2022/02/26 00:53:31;;;;;;;51.03;25.35;;;;;;;-0.98;100.00;103108.72;5073375;28;20467;-71
2022/02/26 00:55:56;;;;;;;55.25;24.63;;;;;;;-1.00;100.00;103112.88;5072995;28;20074;-70
2022/02/26 00:58:22;;;;;;;56.83;26.25;;;;;;;-0.98;100.00;103113.00;5073091;28;20060;-70
2022/02/26 01:00:47;;;;;;;52.08;26.35;;;;;;;-0.91;100.00;103110.16;5072767;28;20028;-71
2022/02/26 01:03:12;;;;;;;46.10;24.30;;;;;;;-0.94;100.00;103120.28;5072813;28;20031;-71
2022/02/26 01:05:38;;;;;;;48.90;25.00;;;;;;;-0.97;100.00;103120.94;5072971;28;20478;-70
2022/02/26 01:08:03;;;;;;;48.78;24.98;;;;;;;-1.09;100.00;103123.38;5072716;28;20462;-70
2022/02/26 01:10:29;;;;;;;54.80;25.85;;;;;;;-1.11;100.00;103139.56;5072836;28;20052;-70
2022/02/26 01:12:54;;;;;;;51.25;26.50;;;;;;;-0.98;100.00;103133.78;5072981;28;20063;-71
2022/02/26 01:15:19;;;;;;;46.35;24.10;;;;;;;-1.12;100.00;103128.28;5072595;28;20108;-72
2022/02/26 01:17:45;;;;;;;51.58;26.40;;;;;;;-1.02;100.00;103127.41;5072823;28;20057;-71
2022/02/26 01:20:10;;;;;;;55.17;26.52;;;;;;;-1.14;100.00;103136.72;5072670;28;20025;-71
2022/02/26 01:22:35;;;;;;;51.22;26.70;;;;;;;-1.03;100.00;103141.16;5072595;28;20029;-71
2022/02/26 01:25:01;;;;;;;50.80;26.15;;;;;;;-1.14;100.00;103139.31;5072717;28;20372;-71
2022/02/26 01:27:26;;;;;;;47.22;25.60;;;;;;;-1.21;100.00;103148.22;5072528;28;20395;-71
2022/02/26 01:29:51;;;;;;;52.90;24.80;;;;;;;-1.25;100.00;103143.56;5071109;28;20119;-71
2022/02/26 01:32:17;;;;;;;55.55;26.98;;;;;;;-1.24;100.00;103143.69;5072339;28;20032;-71
2022/02/26 01:34:42;;;;;;;55.35;26.73;;;;;;;-1.32;100.00;103151.56;5072453;28;20024;-71
2022/02/26 01:37:07;;;;;;;50.90;24.52;;;;;;;-1.45;100.00;103144.38;5072664;28;20028;-71
2022/02/26 01:39:33;;;;;;;53.60;24.85;;;;;;;-1.50;100.00;103135.25;5071482;28;20024;-71
2022/02/26 01:41:59;;;;;;;51.83;25.50;;;;;;;-1.42;100.00;103145.53;5072428;28;20025;-71
2022/02/26 01:44:25;;;;;;;50.33;25.95;;;;;;;-1.37;100.00;103153.72;5072363;28;20360;-72
2022/02/26 01:46:50;;;;;;;46.80;25.48;;;;;;;-1.39;100.00;103141.41;5072391;28;20021;-71
2022/02/26 01:49:16;;;;;;;49.28;24.70;;;;;;;-1.53;100.00;103133.31;5072348;28;20068;-71
2022/02/26 01:51:41;;;;;;;46.03;24.65;;;;;;;-1.48;100.00;103128.53;5072687;28;20361;-71
2022/02/26 01:54:07;;;;;;;49.88;25.08;;;;;;;-1.55;100.00;103127.03;5072288;28;20036;-71
2022/02/26 01:56:33;;;;;;;48.08;24.08;;;;;;;-1.66;100.00;103136.47;5072269;28;20021;-71
2022/02/26 01:58:58;;;;;;;51.30;24.08;;;;;;;-1.71;100.00;103142.00;5072471;28;20017;-71
2022/02/26 02:01:24;;;;;;;50.90;25.50;;;;;;;-1.71;100.00;103135.13;5072233;28;20027;-71
2022/02/26 02:03:49;;;;;;;47.22;24.20;;;;;;;-1.72;100.00;103135.00;5072120;28;20028;-72
2022/02/26 02:06:15;;;;;;;49.42;24.30;;;;;;;-1.69;100.00;103143.03;5072336;28;20454;-71
2022/02/26 02:08:45;;;;;;;49.70;25.73;;;;;;;-1.64;100.00;103134.00;5072149;28;20029;-71
2022/02/26 02:11:10;;;;;;;51.00;26.70;;;;;;;-1.62;100.00;103141.13;5072139;28;20025;-72
2022/02/26 02:13:36;;;;;;;49.65;26.80;;;;;;;-1.59;100.00;103131.06;5072533;28;20090;-71
2022/02/26 02:16:01;;;;;;;52.22;27.25;;;;;;;-1.59;100.00;103137.91;5072049;28;20471;-71
2022/02/26 02:18:27;;;;;;;53.85;25.77;;;;;;;-1.63;100.00;103135.81;5071980;28;20024;-71
2022/02/26 02:20:53;;;;;;;51.35;26.70;;;;;;;-1.61;100.00;103131.69;5072248;28;20036;-70
2022/02/26 02:23:19;;;;;;;48.90;26.13;;;;;;;-1.70;100.00;103133.44;5072198;28;20024;-70
2022/02/26 02:25:45;;;;;;;50.70;25.90;;;;;;;-1.76;100.00;103131.22;5071793;28;20024;-70
2022/02/26 02:28:11;;;;;;;45.95;24.80;;;;;;;-1.75;100.00;103133.03;5072240;28;20032;-70
2022/02/26 02:30:37;;;;;;;43.97;23.70;;;;;;;-1.82;100.00;103130.63;5071955;28;20021;-70
2022/02/26 02:33:03;;;;;;;46.45;23.63;;;;;;;-1.91;100.00;103143.69;5071838;28;20387;-71
2022/02/26 02:35:35;;;;;;;43.15;23.65;;;;;;;-1.90;100.00;103140.31;5072038;28;20016;-70
2022/02/26 02:38:04;;;;;;;46.92;26.15;;;;;;;-1.89;100.00;103134.38;5071936;28;20033;-71
2022/02/26 02:40:30;;;;;;;50.28;27.20;;;;;;;-1.90;100.00;103129.94;5072094;28;20024;-70
2022/02/26 02:42:55;;;;;;;53.53;27.10;;;;;;;-1.88;100.00;103128.41;5071963;28;20035;-71
2022/02/26 02:45:22;;;;;;;50.53;27.23;;;;;;;-1.91;100.00;103130.72;5074428;28;20025;-70
2022/02/26 02:47:48;;;;;;;48.17;27.90;;;;;;;-1.80;100.00;103129.13;5075099;28;20058;-71
2022/02/26 02:50:15;;;;;;;53.85;28.05;;;;;;;-1.90;100.00;103142.00;5075595;28;20075;-71
2022/02/26 02:52:46;;;;;;;51.85;29.05;;;;;;;-1.83;100.00;103149.59;5075284;28;20123;-70
2022/02/26 02:55:14;;;;;;;48.40;27.38;;;;;;;-1.93;100.00;103137.44;5075110;28;20047;-71
2022/02/26 02:57:41;;;;;;;55.03;31.05;;;;;;;-1.80;100.00;103134.31;5075707;28;20029;-71
2022/02/26 03:00:07;;;;;;;47.88;28.25;;;;;;;-1.84;100.00;103145.16;5075202;28;20032;-71
2022/02/26 03:02:33;;;;;;;51.60;27.30;;;;;;;-1.99;100.00;103134.31;5075011;28;20464;-72
2022/02/26 03:04:58;;;;;;;51.90;27.63;;;;;;;-1.98;100.00;103133.50;5075300;28;20029;-72
2022/02/26 03:07:24;;;;;;;50.40;30.38;;;;;;;-1.95;100.00;103126.94;5070939;28;20039;-72
2022/02/26 03:09:50;;;;;;;54.47;30.30;;;;;;;-1.92;100.00;103128.91;5074958;28;20032;-72
2022/02/26 03:12:16;;;;;;;52.92;31.15;;;;;;;-1.96;100.00;103144.94;5075290;28;20032;-71
2022/02/26 03:14:41;;;;;;;55.22;33.95;;;;;;;-1.96;100.00;103138.06;5074913;28;20030;-72
2022/02/26 03:17:07;;;;;;;64.80;37.33;;;;;;;-1.88;100.00;103138.75;5074851;28;20383;-72
2022/02/26 03:19:32;;;;;;;62.83;37.80;;;;;;;-1.89;100.00;103147.34;5074914;28;20025;-72
2022/02/26 03:21:57;;;;;;;61.90;38.30;;;;;;;-1.91;100.00;103155.75;5074930;28;20059;-71
2022/02/26 03:24:23;;;;;;;70.47;40.38;;;;;;;-1.87;100.00;103157.84;5073374;28;20135;-72
2022/02/26 03:26:55;;;;;;;69.80;39.92;;;;;;;-1.90;100.00;103155.88;5074833;28;20392;-72
2022/02/26 03:29:22;;;;;;;62.00;39.63;;;;;;;-1.95;100.00;103167.53;5074746;28;20430;-72
2022/02/26 03:31:47;;;;;;;67.15;38.30;;;;;;;-2.07;100.00;103175.06;5074500;28;20028;-72
2022/02/26 03:34:13;;;;;;;70.90;40.10;;;;;;;-2.12;100.00;103177.22;5074666;28;20482;-73
2022/02/26 03:36:38;;;;;;;67.45;37.17;;;;;;;-2.26;100.00;103172.44;5074812;28;20142;-73
2022/02/26 03:39:04;;;;;;;61.20;39.65;;;;;;;-2.30;100.00;103181.63;5074394;28;20028;-73
2022/02/26 03:41:30;;;;;;;70.78;43.20;;;;;;;-2.22;100.00;103184.91;5074576;28;20111;-73
2022/02/26 03:43:55;;;;;;;71.40;44.30;;;;;;;-2.23;100.00;103185.66;5074284;28;20116;-73
2022/02/26 03:46:20;;;;;;;79.07;45.00;;;;;;;-2.21;100.00;103184.16;5074267;28;20032;-73
2022/02/26 03:48:46;;;;;;;78.07;47.05;;;;;;;-2.11;100.00;103194.59;5074160;28;20045;-73
2022/02/26 03:51:14;;;;;;;71.70;47.20;;;;;;;-2.09;100.00;103196.44;5074167;28;20070;-73
2022/02/26 03:53:39;;;;;;;79.13;47.95;;;;;;;-2.12;100.00;103197.97;5074598;28;20032;-73
2022/02/26 03:56:04;;;;;;;78.10;48.67;;;;;;;-2.11;100.00;103198.91;5074244;28;20530;-73
2022/02/26 03:58:30;;;;;;;74.50;48.95;;;;;;;-2.07;100.00;103194.88;5074170;28;20025;-73
2022/02/26 04:00:55;;;;;;;86.78;52.22;;;;;;;-2.09;100.00;103201.63;5072948;28;20475;-73
2022/02/26 04:03:21;;;;;;;86.47;50.25;;;;;;;-2.13;100.00;103214.28;5073847;28;20363;-73
2022/02/26 04:05:46;;;;;;;82.60;51.95;;;;;;;-2.11;100.00;103215.34;5073865;28;20031;-73
2022/02/26 04:08:11;;;;;;;81.70;52.67;;;;;;;-2.13;100.00;103227.22;5074110;28;20440;-74
2022/02/26 04:10:36;;;;;;;81.25;51.50;;;;;;;-2.16;100.00;103216.59;5073895;28;20452;-73
2022/02/26 04:13:03;;;;;;;85.68;51.53;;;;;;;-2.18;100.00;103217.22;5073780;28;20048;-73
2022/02/26 04:15:28;;;;;;;85.43;52.70;;;;;;;-2.12;100.00;103223.88;5072673;28;20044;-73
2022/02/26 04:17:54;;;;;;;85.85;53.70;;;;;;;-2.12;100.00;103223.88;5073758;28;20468;-73
2022/02/26 04:20:19;;;;;;;88.00;53.15;;;;;;;-2.09;100.00;103237.91;5073423;28;20071;-73
2022/02/26 04:22:44;;;;;;;90.05;53.38;;;;;;;-2.04;100.00;103240.19;5073956;28;20589;-73
2022/02/26 04:25:10;;;;;;;92.30;54.03;;;;;;;-2.03;100.00;103239.38;5073507;28;20028;-73
2022/02/26 04:27:35;;;;;;;98.00;55.25;;;;;;;-1.99;100.00;103232.81;5073309;28;20054;-73
2022/02/26 04:30:02;;;;;;;87.40;54.65;;;;;;;-1.97;100.00;103239.06;5073571;28;20159;-73
2022/02/26 04:32:28;;;;;;;86.60;53.90;;;;;;;-1.98;100.00;103238.16;5073363;28;20510;-73
2022/02/26 04:34:53;;;;;;;86.40;54.70;;;;;;;-1.97;100.00;103234.75;5073421;28;20033;-73
2022/02/26 04:37:20;;;;;;;86.10;54.55;;;;;;;-1.91;100.00;103249.09;5073371;28;20479;-73
2022/02/26 04:39:47;;;;;;;91.68;54.08;;;;;;;-1.88;100.00;103239.00;5073418;28;20114;-73
2022/02/26 04:42:12;;;;;;;92.47;54.40;;;;;;;-1.93;100.00;103244.66;5073376;28;20032;-73
2022/02/26 04:44:37;;;;;;;86.70;53.83;;;;;;;-1.96;100.00;103243.47;5073049;28;20029;-73
2022/02/26 04:47:03;;;;;;;90.22;54.70;;;;;;;-1.98;100.00;103242.41;5073114;28;20036;-73
2022/02/26 04:49:28;;;;;;;93.45;55.15;;;;;;;-2.03;100.00;103254.03;5073177;28;20044;-73
2022/02/26 04:51:54;;;;;;;100.78;56.42;;;;;;;-2.05;100.00;103251.31;5073144;28;20072;-73
2022/02/26 04:54:19;;;;;;;97.60;57.75;;;;;;;-2.07;100.00;103249.31;5073028;28;20028;-73
2022/02/26 04:56:44;;;;;;;143.95;84.57;;;;;;;-2.08;100.00;103242.31;5073247;28;20063;-71
2022/02/26 04:59:10;;;;;;;172.18;100.45;;;;;;;-2.07;100.00;103246.75;5073186;28;20024;-72
2022/02/26 05:01:35;;;;;;;154.52;92.32;;;;;;;-2.06;100.00;103251.16;5072887;28;20072;-71
2022/02/26 05:04:00;;;;;;;175.02;104.75;;;;;;;-2.05;100.00;103242.59;5073059;28;20475;-72
2022/02/26 05:06:26;;;;;;;142.55;84.47;;;;;;;-2.13;100.00;103240.19;5072398;28;20025;-72
2022/02/26 05:08:51;;;;;;;155.13;97.65;;;;;;;-2.12;100.00;103244.63;5072651;28;20028;-72
2022/02/26 05:11:16;;;;;;;140.40;87.68;;;;;;;-2.19;100.00;103252.59;5073190;28;20401;-72
2022/02/26 05:13:41;;;;;;;146.75;93.30;;;;;;;-2.22;100.00;103247.13;5072777;28;20124;-72
2022/02/26 05:16:07;;;;;;;122.53;68.45;;;;;;;-2.26;100.00;103250.19;5072867;28;20492;-72
2022/02/26 05:18:33;;;;;;;139.90;83.75;;;;;;;-2.33;100.00;103247.75;5072931;28;20025;-73
2022/02/26 05:20:59;;;;;;;116.65;77.75;;;;;;;-2.33;100.00;103247.75;5072546;28;20107;-72
2022/02/26 05:23:24;;;;;;;116.72;73.38;;;;;;;-2.36;100.00;103247.47;5072947;28;20149;-72
2022/02/26 05:25:49;;;;;;;119.30;69.15;;;;;;;-2.47;100.00;103244.78;5072457;28;20032;-72
2022/02/26 05:28:15;;;;;;;118.82;67.68;;;;;;;-2.56;100.00;103246.50;5072570;28;20520;-72
2022/02/26 05:30:40;;;;;;;105.68;68.00;;;;;;;-2.51;100.00;103247.84;5072972;28;20055;-72
2022/02/26 05:33:05;;;;;;;99.90;63.05;;;;;;;-2.54;100.00;103252.72;5072847;28;20128;-73
2022/02/26 05:35:31;;;;;;;99.82;61.53;;;;;;;-2.41;100.00;103256.50;5072791;28;20497;-72
2022/02/26 05:37:56;;;;;;;109.93;63.55;;;;;;;-2.36;100.00;103257.84;5072638;28;20024;-72
2022/02/26 05:40:22;;;;;;;105.93;66.18;;;;;;;-2.33;100.00;103252.94;5053765;28;20032;-73
2022/02/26 05:42:48;;;;;;;103.65;68.97;;;;;;;-2.49;100.00;103248.91;5072367;28;20463;-72
2022/02/26 05:45:13;;;;;;;110.60;68.22;;;;;;;-2.56;100.00;103259.47;5072763;28;20066;-72
2022/02/26 05:47:39;;;;;;;98.22;63.05;;;;;;;-2.54;100.00;103263.09;5072556;28;20028;-71
2022/02/26 05:50:05;;;;;;;95.38;60.90;;;;;;;-2.69;100.00;103261.63;5072346;28;20024;-72
2022/02/26 05:52:30;;;;;;;94.05;60.05;;;;;;;-2.77;100.00;103255.69;5072445;28;20100;-72
2022/02/26 05:54:56;;;;;;;93.45;59.20;;;;;;;-2.80;100.00;103257.97;5068283;28;20102;-72
2022/02/26 05:57:21;;;;;;;87.97;56.78;;;;;;;-2.81;100.00;103259.66;5072521;28;20143;-73
2022/02/26 05:59:46;;;;;;;85.72;56.38;;;;;;;-2.81;100.00;103272.63;5072138;28;20032;-72
2022/02/26 06:02:12;;;;;;;88.78;56.97;;;;;;;-2.87;100.00;103261.66;5069303;28;20058;-72
2022/02/26 06:04:39;;;;;;;79.68;54.83;;;;;;;-2.95;100.00;103265.19;5072381;28;20028;-73
2022/02/26 06:07:04;;;;;;;86.88;54.58;;;;;;;-2.99;100.00;103276.00;5072145;28;20025;-72
2022/02/26 06:09:30;;;;;;;85.30;55.17;;;;;;;-2.98;100.00;103275.25;5072647;28;20020;-72
2022/02/26 06:11:55;;;;;;;85.10;54.78;;;;;;;-2.94;100.00;103276.44;5072559;28;20020;-72
2022/02/26 06:14:20;;;;;;;88.53;55.47;;;;;;;-3.01;100.00;103277.53;5072130;28;20060;-72
2022/02/26 06:16:46;;;;;;;93.07;57.33;;;;;;;-2.99;100.00;103286.34;5072110;28;20052;-72
2022/02/26 06:19:11;;;;;;;95.75;58.92;;;;;;;-3.00;100.00;103300.03;5073228;28;20082;-72
2022/02/26 06:21:37;;;;;;;95.13;57.35;;;;;;;-2.98;100.00;103299.44;5075858;28;20383;-72
2022/02/26 06:24:02;;;;;;;82.90;56.42;;;;;;;-2.93;100.00;103299.88;5075711;28;20103;-72
2022/02/26 06:26:28;;;;;;;91.93;56.85;;;;;;;-3.05;100.00;103293.50;5076124;28;20097;-72
2022/02/26 06:28:55;;;;;;;90.05;56.78;;;;;;;-3.10;100.00;103300.84;5076076;28;20391;-72
2022/02/26 06:31:21;;;;;;;90.28;56.10;;;;;;;-3.07;100.00;103307.97;5075921;28;20025;-72
2022/02/26 06:33:46;;;;;;;87.22;56.95;;;;;;;-3.11;100.00;103295.50;5076074;28;20039;-72
2022/02/26 06:36:11;;;;;;;92.45;56.75;;;;;;;-3.13;100.00;103304.78;5075734;28;20024;-72
2022/02/26 06:38:37;;;;;;;82.57;54.92;;;;;;;-3.11;100.00;103311.94;5075757;28;20107;-72
2022/02/26 06:41:02;;;;;;;83.78;56.10;;;;;;;-3.05;100.00;103315.13;5075467;28;20029;-72
2022/02/26 06:43:28;;;;;;;84.32;56.25;;;;;;;-3.10;100.00;103310.25;5075469;28;20524;-73
2022/02/26 06:45:53;;;;;;;89.13;56.50;;;;;;;-3.16;100.00;103308.91;5075809;28;20058;-72
2022/02/26 06:48:19;;;;;;;92.53;56.40;;;;;;;-3.19;100.00;103306.00;5075306;28;20376;-72
2022/02/26 06:50:44;;;;;;;84.80;54.55;;;;;;;-3.21;100.00;103317.84;5075444;28;20025;-73
2022/02/26 06:53:09;;;;;;;82.47;55.70;;;;;;;-3.09;100.00;103319.84;5075538;28;20031;-71
2022/02/26 06:55:34;;;;;;;88.28;57.13;;;;;;;-3.08;100.00;103317.41;5075217;28;20021;-72
2022/02/26 06:58:00;;;;;;;84.88;56.72;;;;;;;-3.00;100.00;103326.88;5075527;28;20398;-71
2022/02/26 07:00:28;;;;;;;98.20;63.38;;;;;;;-2.87;100.00;103326.41;5075400;28;20047;-71
2022/02/26 07:02:54;;;;;;;94.45;61.92;;;;;;;-2.86;100.00;103333.38;5075367;28;20055;-71
2022/02/26 07:05:19;;;;;;;94.25;60.03;;;;;;;-2.83;100.00;103331.09;5074973;28;20056;-71
2022/02/26 07:07:45;;;;;;;86.18;57.78;;;;;;;-2.79;100.00;103334.00;5075279;28;20024;-71
2022/02/26 07:10:11;;;;;;;84.53;57.15;;;;;;;-2.75;100.00;103346.47;5075023;28;20039;-72
2022/02/26 07:12:37;;;;;;;90.93;62.20;;;;;;;-2.61;100.00;103343.56;5074853;28;20028;-71
2022/02/26 07:15:03;;;;;;;92.07;62.72;;;;;;;-2.55;100.00;103343.25;5075296;28;20033;-71
2022/02/26 07:17:29;;;;;;;92.10;63.33;;;;;;;-2.49;100.00;103339.59;5075043;28;20032;-71
2022/02/26 07:19:54;;;;;;;93.28;62.63;;;;;;;-2.47;100.00;103334.56;5074989;28;20029;-71
2022/02/26 07:22:20;;;;;;;91.60;60.92;;;;;;;-2.47;100.00;103348.41;5072499;28;20032;-71
2022/02/26 07:24:46;;;;;;;82.40;58.45;;;;;;;-2.42;100.00;103355.72;5074568;28;20025;-71
2022/02/26 07:27:13;;;;;;;87.75;59.30;;;;;;;-2.32;100.00;103354.16;5074573;28;20086;-71
2022/02/26 07:29:39;;;;;;;85.32;62.08;;;;;;;-2.29;100.00;103353.53;5074360;28;20046;-71
2022/02/26 07:32:05;;;;;;;91.82;63.97;;;;;;;-2.18;100.00;103358.09;5074565;28;20530;-71
2022/02/26 07:34:30;;;;;;;88.57;63.75;;;;;;;-2.06;100.00;103357.44;5074841;28;20029;-72
2022/02/26 07:36:56;;;;;;;95.07;65.25;;;;;;;-1.93;100.00;103360.44;5074521;28;20028;-72
2022/02/26 07:39:21;;;;;;;96.50;64.93;;;;;;;-1.85;100.00;103362.09;5074509;28;20032;-72
2022/02/26 07:41:46;;;;;;;96.60;61.67;;;;;;;-1.83;100.00;103362.25;5074542;28;20082;-72
2022/02/26 07:44:12;;;;;;;91.43;59.25;;;;;;;-1.81;100.00;103359.00;5071621;28;20028;-72
2022/02/26 07:46:38;;;;;;;82.43;56.08;;;;;;;-1.78;100.00;103361.91;5072129;28;20052;-73
2022/02/26 07:49:03;;;;;;;81.82;56.47;;;;;;;-1.69;100.00;103371.31;5071631;28;20067;-72
2022/02/26 07:51:29;;;;;;;77.55;54.85;;;;;;;-1.53;100.00;103377.19;5072151;28;20085;-72
2022/02/26 07:53:54;;;;;;;90.18;59.95;;;;;;;-1.43;100.00;103374.69;5072614;28;20526;-73
2022/02/26 07:56:19;;;;;;;80.70;57.13;;;;;;;-1.31;100.00;103376.56;5072623;28;20025;-71
2022/02/26 07:58:45;;;;;;;85.40;57.42;;;;;;;-1.23;100.00;103380.81;5071960;28;20017;-72
2022/02/26 08:01:10;;;;;;;83.93;56.30;;;;;;;-1.08;100.00;103376.13;5071719;28;20052;-74
2022/02/26 08:03:35;;;;;;;85.55;58.85;;;;;;;-0.97;100.00;103379.72;5072862;28;20534;-73
2022/02/26 08:06:01;;;;;;;85.32;62.00;;;;;;;-0.67;100.00;103381.59;5072208;28;20536;-72
2022/02/26 08:08:26;;;;;;;88.57;62.55;;;;;;;-0.44;100.00;103375.84;5072093;28;20054;-73
2022/02/26 08:10:51;;;;;;;87.20;58.97;;;;;;;-0.37;100.00;103375.63;5072313;28;20028;-73
2022/02/26 08:13:17;;;;;;;86.97;60.78;;;;;;;-0.06;100.00;103380.97;5071951;28;20031;-73
2022/02/26 08:15:42;;;;;;;83.78;58.42;;;;;;;0.04;100.00;103386.97;5072118;28;20029;-73
2022/02/26 08:18:09;;;;;;;83.47;58.35;;;;;;;0.38;100.00;103383.03;5072286;28;20028;-73
2022/02/26 08:20:35;;;;;;;71.78;53.95;;;;;;;0.51;100.00;103388.50;5071877;28;20063;-72
2022/02/26 08:23:00;;;;;;;72.30;53.15;;;;;;;0.73;100.00;103384.19;5072591;28;20028;-73
2022/02/26 08:25:26;;;;;;;67.03;49.70;;;;;;;0.80;100.00;103381.34;5071670;28;20077;-73
2022/02/26 08:27:51;;;;;;;67.25;49.85;;;;;;;1.09;100.00;103385.47;5071320;28;20109;-73
2022/02/26 08:30:18;;;;;;;68.82;49.85;;;;;;;1.20;100.00;103385.59;5072335;28;20487;-73
2022/02/26 08:32:44;;;;;;;65.30;49.58;;;;;;;1.45;100.00;103386.72;5071894;28;20024;-74
2022/02/26 08:35:10;;;;;;;62.95;48.20;;;;;;;1.60;100.00;103387.06;5071124;28;20111;-73
2022/02/26 08:37:37;;;;;;;62.10;45.90;;;;;;;1.65;100.00;103391.84;5070521;28;20170;-73
2022/02/26 08:40:04;;;;;;;64.90;46.25;;;;;;;1.71;100.00;103392.34;5071705;28;20024;-74
2022/02/26 08:42:29;;;;;;;59.42;46.80;;;;;;;1.82;100.00;103390.63;5071166;28;20024;-75
2022/02/26 08:44:54;;;;;;;60.95;46.85;;;;;;;2.02;100.00;103389.59;5070668;28;20106;-74
2022/02/26 08:47:21;;;;;;;64.38;48.50;;;;;;;2.22;100.00;103401.63;5071981;28;20029;-74
2022/02/26 08:49:46;;;;;;;63.25;48.92;;;;;;;2.40;100.00;103398.63;5071237;28;20039;-74
2022/02/26 08:52:12;;;;;;;66.63;48.20;;;;;;;2.55;100.00;103405.06;5071945;28;20024;-73
2022/02/26 08:54:37;;;;;;;59.50;46.22;;;;;;;2.65;100.00;103396.25;5071845;28;20028;-73
2022/02/26 08:57:03;;;;;;;60.05;44.83;;;;;;;2.77;100.00;103391.97;5071361;28;20102;-73
2022/02/26 08:59:30;;;;;;;55.28;42.03;;;;;;;2.81;100.00;103407.88;5069036;28;20116;-73
2022/02/26 09:01:56;;;;;;;57.17;42.55;;;;;;;2.90;100.00;103408.59;5071431;28;20029;-73
2022/02/26 09:04:21;;;;;;;59.70;44.25;;;;;;;2.95;100.00;103405.53;5068613;28;20021;-73
2022/02/26 09:06:47;;;;;;;56.50;42.10;;;;;;;3.14;100.00;103407.81;5071682;28;20084;-74
2022/02/26 09:09:12;;;;;;;57.25;43.08;;;;;;;3.47;100.00;103395.47;5071055;28;20036;-74
2022/02/26 09:11:39;;;;;;;56.67;40.95;;;;;;;3.72;100.00;103399.88;5071436;28;20044;-74
2022/02/26 09:14:05;;;;;;;53.08;40.63;;;;;;;4.00;100.00;103400.22;5070835;28;20082;-74
2022/02/26 09:16:31;;;;;;;52.33;39.40;;;;;;;4.28;100.00;103406.47;5068358;28;20515;-74
2022/02/26 09:18:57;;;;;;;51.20;37.28;;;;;;;4.40;100.00;103401.19;5071657;28;20024;-74
2022/02/26 09:21:22;;;;;;;49.28;36.53;;;;;;;4.66;100.00;103403.00;5071068;28;20094;-74
2022/02/26 09:23:47;;;;;;;45.30;33.10;;;;;;;4.71;100.00;103399.00;5071287;28;20025;-74
2022/02/26 09:26:13;;;;;;;46.35;33.75;;;;;;;5.05;100.00;103393.44;5070893;28;20040;-75
2022/02/26 09:28:39;;;;;;;46.65;31.23;;;;;;;5.38;100.00;103401.78;5070722;28;20064;-74
2022/02/26 09:31:05;;;;;;;46.92;30.40;;;;;;;5.61;100.00;103395.41;5071226;28;20029;-74
2022/02/26 09:33:30;;;;;;;44.65;30.08;;;;;;;5.89;100.00;103400.72;5071178;28;20070;-74
2022/02/26 09:35:57;;;;;;;42.75;29.48;;;;;;;6.06;100.00;103403.56;5071058;28;20028;-74
2022/02/26 09:38:23;;;;;;;41.67;27.23;;;;;;;6.27;100.00;103404.91;5072606;28;20070;-74
2022/02/26 09:40:49;;;;;;;41.08;23.23;;;;;;;6.48;100.00;103412.34;5072651;28;20059;-74
2022/02/26 09:43:14;;;;;;;38.10;21.73;;;;;;;6.67;100.00;103408.19;5072693;28;20131;-74
2022/02/26 09:45:39;;;;;;;34.80;18.15;;;;;;;6.89;100.00;103405.16;5072506;28;20082;-74
2022/02/26 09:48:05;;;;;;;37.08;19.95;;;;;;;7.10;100.00;103400.28;5072388;28;20049;-74
2022/02/26 09:50:31;;;;;;;35.42;17.08;;;;;;;7.26;100.00;103400.34;5071100;28;20497;-71
2022/02/26 09:52:57;;;;;;;37.00;18.67;;;;;;;7.52;100.00;103400.97;5073168;28;20040;-72
2022/02/26 09:55:23;;;;;;;36.42;18.15;;;;;;;8.03;100.00;103409.09;5076431;28;20020;-71
2022/02/26 09:57:48;;;;;;;31.85;15.32;;;;;;;8.25;100.00;103400.63;5076458;28;20082;-72
2022/02/26 10:00:14;;;;;;;28.88;12.68;;;;;;;8.26;100.00;103399.84;5076459;28;20025;-71
2022/02/26 10:02:40;;;;;;;30.42;11.80;;;;;;;8.58;100.00;103408.59;5076064;28;20020;-71
2022/02/26 10:05:11;;;;;;;31.80;11.93;;;;;;;8.31;100.00;103408.88;5076395;28;20024;-71
2022/02/26 10:07:36;;;;;;;30.15;10.50;;;;;;;7.87;100.00;103402.06;5076401;28;20032;-72
2022/02/26 10:10:15;;;;;;;29.40;10.88;;;;;;;7.67;100.00;103407.13;5076263;28;20066;-72
2022/02/26 10:12:40;;;;;;;31.30;10.90;;;;;;;7.61;100.00;103405.84;5073604;28;20027;-72
2022/02/26 10:15:20;;;;;;;27.75;9.82;;;;;;;8.43;100.00;103407.72;5075918;28;20021;-72
2022/02/26 10:17:57;;;;;;;28.77;8.98;;;;;;;8.64;100.00;103403.66;5076067;28;20107;-72
2022/02/26 10:20:23;;;;;;;27.77;8.80;;;;;;;8.48;98.52;103401.03;5076444;28;20048;-72
2022/02/26 10:22:52;;;;;;;26.42;7.35;;;;;;;7.83;100.00;103401.00;5075976;28;20063;-71
2022/02/26 10:25:27;;;;;;;28.20;9.60;;;;;;;7.81;100.00;103404.38;5075607;28;20428;-71
2022/02/26 10:27:59;;;;;;;28.27;8.70;;;;;;;7.67;100.00;103407.13;5075626;28;20066;-74
2022/02/26 10:30:27;;;;;;;27.90;8.88;;;;;;;8.99;99.84;103390.50;5074715;28;20025;-72
2022/02/26 10:33:12;;;;;;;27.38;8.88;;;;;;;9.26;93.29;103385.69;5075645;28;20107;-72
2022/02/26 10:35:50;;;;;;;25.90;7.93;;;;;;;8.58;94.56;103390.16;5072690;28;20074;-72
2022/02/26 10:38:20;;;;;;;29.70;8.73;;;;;;;8.56;96.37;103386.50;5075529;28;20020;-72
2022/02/26 10:40:47;;;;;;;27.52;8.05;;;;;;;9.89;90.95;103388.78;5075663;28;20028;-72
2022/02/26 10:43:12;;;;;;;27.00;7.10;;;;;;;11.43;82.74;103394.75;5075919;28;20055;-72
2022/02/26 10:45:38;;;;;;;24.30;5.60;;;;;;;12.52;70.61;103392.81;5075656;28;20060;-73
2022/02/26 10:48:03;;;;;;;23.45;4.85;;;;;;;13.72;62.09;103384.50;5075511;28;20045;-72
2022/02/26 10:50:31;;;;;;;25.33;5.95;;;;;;;14.25;58.28;103381.66;5075959;28;20032;-70
2022/02/26 10:53:04;;;;;;;24.63;5.22;;;;;;;14.27;56.07;103391.50;5075219;28;20060;-71
2022/02/26 10:55:52;;;;;;;22.95;5.18;;;;;;;15.79;54.18;103395.50;5071299;28;20025;-70
2022/02/26 10:58:21;;;;;;;23.35;5.38;;;;;;;15.32;51.33;103382.81;5073641;28;20480;-71
2022/02/26 11:00:46;;;;;;;21.17;4.50;;;;;;;16.06;46.01;103378.31;5075437;28;20039;-70
2022/02/26 11:03:12;;;;;;;21.33;4.45;;;;;;;14.27;46.84;103378.19;5075185;28;20032;-71